This is the latest recevied weather packets stored in our database for station/object EB1BWO-11. If no packets are shown the sender has not sent any weather packets the latest 10 day(s).
| Time | Temp. | Humidity | Pressure | Rain* | Wind** | Luminosity | Snow |
|---|---|---|---|---|---|---|---|
| 1777813877 | 25.56° C | 57% | 1014.3 hPa | - | - | - | - |
| 1777812977 | 32.78° C | 43% | 1014.4 hPa | - | - | - | - |
| 1777812077 | 28.89° C | 53% | 1014.4 hPa | - | - | - | - |
| 1777811177 | 22.22° C | 65% | 1014.5 hPa | - | - | - | - |
| 1777810277 | 23.89° C | 64% | 1014.8 hPa | - | - | - | - |
| 1777809377 | 25.56° C | 61% | 1014.9 hPa | - | - | - | - |
| 1777808476 | 26.67° C | 57% | 1015 hPa | - | - | - | - |
| 1777807576 | 32.78° C | 48% | 1015 hPa | - | - | - | - |
| 1777806676 | 28.89° C | 58% | 1015.2 hPa | - | - | - | - |
| 1777805776 | 31.67° C | 50% | 1015.2 hPa | - | - | - | - |
| 1777804876 | 31.11° C | 50% | 1015.2 hPa | - | - | - | - |
| 1777803976 | 32.22° C | 49% | 1015.2 hPa | - | - | - | - |
| 1777803076 | 30° C | 54% | 1015.5 hPa | - | - | - | - |
| 1777802176 | 26.67° C | 60% | 1015.4 hPa | - | - | - | - |
| 1777801276 | 24.44° C | 66% | 1015.5 hPa | - | - | - | - |
| 1777800375 | 25.56° C | 64% | 1015.7 hPa | - | - | - | - |
| 1777799475 | 23.33° C | 67% | 1015.8 hPa | - | - | - | - |
| 1777798575 | 23.33° C | 65% | 1015.9 hPa | - | - | - | - |
| 1777797674 | 21.11° C | 73% | 1015.9 hPa | - | - | - | - |
| 1777796774 | 18.33° C | 74% | 1016.1 hPa | - | - | - | - |
| 1777795874 | 17.22° C | 74% | 1016 hPa | - | - | - | - |
| 1777794973 | 16.67° C | 73% | 1016.1 hPa | - | - | - | - |
| 1777794073 | 16.11° C | 75% | 1016.2 hPa | - | - | - | - |
| 1777793173 | 15.56° C | 76% | 1016.2 hPa | - | - | - | - |
| 1777792273 | 15° C | 78% | 1016.2 hPa | - | - | - | - |
* Rain since midnight (hover to see other rain measurements)
** Current wind speed in m/s (hover to see current wind gust speed)